sensor_id;sensor_type;location;lat;lon;timestamp;pressure;altitude;pressure_sealevel;temperature;humidity
9189;BME280;34313;50.780;6.084;2023-02-16T00:01:49;100424.88;;;6.36;76.81
9189;BME280;34313;50.780;6.084;2023-02-16T00:04:32;100409.63;;;6.19;76.95
9189;BME280;34313;50.780;6.084;2023-02-16T00:06:58;100415.69;;;6.21;77.44
9189;BME280;34313;50.780;6.084;2023-02-16T00:09:23;100414.94;;;6.16;77.60
9189;BME280;34313;50.780;6.084;2023-02-16T00:11:50;100417.88;;;6.03;77.92
9189;BME280;34313;50.780;6.084;2023-02-16T00:14:36;100417.34;;;5.87;79.05
9189;BME280;34313;50.780;6.084;2023-02-16T00:17:03;100414.91;;;5.80;78.98
9189;BME280;34313;50.780;6.084;2023-02-16T00:19:35;100413.59;;;5.99;78.70
9189;BME280;34313;50.780;6.084;2023-02-16T00:22:01;100415.34;;;5.99;78.70
9189;BME280;34313;50.780;6.084;2023-02-16T00:24:29;100411.28;;;5.85;78.93
9189;BME280;34313;50.780;6.084;2023-02-16T00:26:55;100413.28;;;5.76;79.37
9189;BME280;34313;50.780;6.084;2023-02-16T00:29:24;100415.13;;;5.71;79.75
9189;BME280;34313;50.780;6.084;2023-02-16T00:31:51;100411.69;;;5.68;80.14
9189;BME280;34313;50.780;6.084;2023-02-16T00:34:34;100409.19;;;5.64;80.50
9189;BME280;34313;50.780;6.084;2023-02-16T00:37:03;100410.13;;;5.61;80.72
9189;BME280;34313;50.780;6.084;2023-02-16T00:39:29;100401.47;;;5.59;80.79
9189;BME280;34313;50.780;6.084;2023-02-16T00:42:00;100397.97;;;5.59;80.47
9189;BME280;34313;50.780;6.084;2023-02-16T00:46:51;100397.88;;;5.63;80.99
9189;BME280;34313;50.780;6.084;2023-02-16T00:49:18;100398.13;;;5.53;81.36
9189;BME280;34313;50.780;6.084;2023-02-16T00:51:44;100394.56;;;5.55;81.62
9189;BME280;34313;50.780;6.084;2023-02-16T00:54:10;100403.22;;;5.57;81.38
9189;BME280;34313;50.780;6.084;2023-02-16T00:56:36;100393.81;;;5.50;82.09
9189;BME280;34313;50.780;6.084;2023-02-16T00:59:05;100385.13;;;5.49;82.04
9189;BME280;34313;50.780;6.084;2023-02-16T01:01:33;100376.28;;;5.54;81.43
9189;BME280;34313;50.780;6.084;2023-02-16T01:04:03;100385.13;;;5.49;81.88
9189;BME280;34313;50.780;6.084;2023-02-16T01:06:30;100373.00;;;5.47;81.48
9189;BME280;34313;50.780;6.084;2023-02-16T01:09:16;100373.94;;;5.43;81.05
9189;BME280;34313;50.780;6.084;2023-02-16T01:12:03;100380.94;;;5.42;81.65
9189;BME280;34313;50.780;6.084;2023-02-16T01:14:31;100383.47;;;5.45;81.08
9189;BME280;34313;50.780;6.084;2023-02-16T01:16:57;100367.00;;;5.42;80.97
9189;BME280;34313;50.780;6.084;2023-02-16T01:19:22;100379.84;;;5.51;80.60
9189;BME280;34313;50.780;6.084;2023-02-16T01:21:48;100377.47;;;5.42;80.92
9189;BME280;34313;50.780;6.084;2023-02-16T01:24:13;100378.09;;;5.52;80.71
9189;BME280;34313;50.780;6.084;2023-02-16T01:26:41;100373.25;;;5.72;79.46
9189;BME280;34313;50.780;6.084;2023-02-16T01:29:18;100364.78;;;5.61;79.39
9189;BME280;34313;50.780;6.084;2023-02-16T01:31:44;100352.97;;;5.44;79.70
9189;BME280;34313;50.780;6.084;2023-02-16T01:34:10;100365.97;;;5.49;80.26
9189;BME280;34313;50.780;6.084;2023-02-16T01:36:38;100358.91;;;5.53;79.80
9189;BME280;34313;50.780;6.084;2023-02-16T01:39:04;100352.00;;;5.48;79.50
9189;BME280;34313;50.780;6.084;2023-02-16T01:41:42;100364.13;;;5.53;79.66
9189;BME280;34313;50.780;6.084;2023-02-16T01:44:26;100358.16;;;5.47;80.13
9189;BME280;34313;50.780;6.084;2023-02-16T01:47:04;100356.28;;;5.53;79.59
9189;BME280;34313;50.780;6.084;2023-02-16T01:49:34;100358.09;;;5.51;79.63
9189;BME280;34313;50.780;6.084;2023-02-16T01:52:24;100354.63;;;5.48;79.82
9189;BME280;34313;50.780;6.084;2023-02-16T01:54:53;100344.88;;;5.55;79.49
9189;BME280;34313;50.780;6.084;2023-02-16T01:57:33;100349.22;;;5.56;79.34
9189;BME280;34313;50.780;6.084;2023-02-16T02:02:43;100343.75;;;5.65;79.00
9189;BME280;34313;50.780;6.084;2023-02-16T02:10:53;100343.16;;;5.90;77.67
9189;BME280;34313;50.780;6.084;2023-02-16T02:13:25;100344.88;;;5.91;77.42
9189;BME280;34313;50.780;6.084;2023-02-16T02:15:53;100332.78;;;5.85;77.75
9189;BME280;34313;50.780;6.084;2023-02-16T02:18:18;100343.25;;;5.85;77.88
9189;BME280;34313;50.780;6.084;2023-02-16T02:24:07;100338.66;;;5.97;77.81
9189;BME280;34313;50.780;6.084;2023-02-16T02:35:43;100333.19;;;6.06;77.97
9189;BME280;34313;50.780;6.084;2023-02-16T02:38:23;100328.69;;;6.11;78.48
9189;BME280;34313;50.780;6.084;2023-02-16T02:48:33;100332.28;;;6.07;79.61
9189;BME280;34313;50.780;6.084;2023-02-16T03:00:34;100317.31;;;6.12;79.75
9189;BME280;34313;50.780;6.084;2023-02-16T03:05:44;100300.22;;;5.99;80.40
9189;BME280;34313;50.780;6.084;2023-02-16T03:08:12;100302.81;;;6.00;80.55
9189;BME280;34313;50.780;6.084;2023-02-16T03:10:45;100301.22;;;5.93;80.95
9189;BME280;34313;50.780;6.084;2023-02-16T03:13:37;100292.91;;;5.77;81.34
9189;BME280;34313;50.780;6.084;2023-02-16T03:16:09;100299.00;;;5.78;81.91
9189;BME280;34313;50.780;6.084;2023-02-16T03:18:37;100281.81;;;5.67;82.36
9189;BME280;34313;50.780;6.084;2023-02-16T03:21:23;100276.16;;;5.50;83.03
9189;BME280;34313;50.780;6.084;2023-02-16T03:24:13;100289.22;;;5.50;84.11
9189;BME280;34313;50.780;6.084;2023-02-16T03:26:59;100286.59;;;5.50;84.12
9189;BME280;34313;50.780;6.084;2023-02-16T03:29:46;100296.28;;;5.46;84.83
9189;BME280;34313;50.780;6.084;2023-02-16T03:32:12;100290.19;;;5.47;85.79
9189;BME280;34313;50.780;6.084;2023-02-16T03:34:38;100285.81;;;5.46;85.40
9189;BME280;34313;50.780;6.084;2023-02-16T03:37:04;100289.19;;;5.52;85.88
9189;BME280;34313;50.780;6.084;2023-02-16T03:39:30;100290.25;;;5.44;86.69
9189;BME280;34313;50.780;6.084;2023-02-16T03:41:56;100290.13;;;5.49;86.55
9189;BME280;34313;50.780;6.084;2023-02-16T03:44:22;100279.88;;;5.40;86.90
9189;BME280;34313;50.780;6.084;2023-02-16T03:46:49;100291.97;;;5.45;87.88
9189;BME280;34313;50.780;6.084;2023-02-16T03:49:16;100289.50;;;5.39;87.90
9189;BME280;34313;50.780;6.084;2023-02-16T03:51:42;100291.94;;;5.47;87.94
9189;BME280;34313;50.780;6.084;2023-02-16T03:54:07;100295.44;;;5.46;88.77
9189;BME280;34313;50.780;6.084;2023-02-16T03:56:33;100296.72;;;5.64;88.59
9189;BME280;34313;50.780;6.084;2023-02-16T03:58:58;100282.75;;;5.65;88.44
9189;BME280;34313;50.780;6.084;2023-02-16T04:01:24;100294.06;;;5.65;88.67
9189;BME280;34313;50.780;6.084;2023-02-16T04:03:50;100273.47;;;5.53;88.89
9189;BME280;34313;50.780;6.084;2023-02-16T04:06:16;100285.47;;;5.60;89.12
9189;BME280;34313;50.780;6.084;2023-02-16T04:08:41;100273.47;;;5.53;89.36
9189;BME280;34313;50.780;6.084;2023-02-16T04:11:06;100279.66;;;5.51;89.82
9189;BME280;34313;50.780;6.084;2023-02-16T04:13:51;100278.91;;;5.45;90.33
9189;BME280;34313;50.780;6.084;2023-02-16T04:16:16;100283.19;;;5.48;90.56
9189;BME280;34313;50.780;6.084;2023-02-16T04:18:41;100286.75;;;5.45;90.50
9189;BME280;34313;50.780;6.084;2023-02-16T04:21:07;100284.13;;;5.45;91.00
9189;BME280;34313;50.780;6.084;2023-02-16T04:23:32;100292.00;;;5.44;91.16
9189;BME280;34313;50.780;6.084;2023-02-16T04:25:57;100277.94;;;5.48;91.04
9189;BME280;34313;50.780;6.084;2023-02-16T04:28:23;100273.97;;;5.33;91.86
9189;BME280;34313;50.780;6.084;2023-02-16T04:30:48;100290.78;;;5.57;91.31
9189;BME280;34313;50.780;6.084;2023-02-16T04:33:13;100281.63;;;5.41;91.29
9189;BME280;34313;50.780;6.084;2023-02-16T04:35:38;100290.22;;;5.46;91.56
9189;BME280;34313;50.780;6.084;2023-02-16T04:38:04;100286.72;;;5.47;91.68
9189;BME280;34313;50.780;6.084;2023-02-16T04:40:29;100287.34;;;5.55;91.01
9189;BME280;34313;50.780;6.084;2023-02-16T04:42:55;100279.38;;;5.61;90.83
9189;BME280;34313;50.780;6.084;2023-02-16T04:45:20;100291.56;;;5.61;90.70
9189;BME280;34313;50.780;6.084;2023-02-16T04:47:46;100274.44;;;5.49;91.24
9189;BME280;34313;50.780;6.084;2023-02-16T04:50:11;100277.13;;;5.46;91.25
9189;BME280;34313;50.780;6.084;2023-02-16T04:52:37;100280.91;;;5.34;91.89
9189;BME280;34313;50.780;6.084;2023-02-16T04:55:04;100281.63;;;5.41;92.37
9189;BME280;34313;50.780;6.084;2023-02-16T04:57:30;100268.69;;;5.35;93.05
9189;BME280;34313;50.780;6.084;2023-02-16T04:59:55;100277.25;;;5.41;92.33
9189;BME280;34313;50.780;6.084;2023-02-16T05:02:21;100286.81;;;5.42;92.48
9189;BME280;34313;50.780;6.084;2023-02-16T05:04:46;100284.94;;;5.47;92.09
9189;BME280;34313;50.780;6.084;2023-02-16T05:07:15;100258.09;;;5.41;92.01
9189;BME280;34313;50.780;6.084;2023-02-16T05:09:43;100286.34;;;5.61;91.50
9189;BME280;34313;50.780;6.084;2023-02-16T05:12:09;100288.03;;;5.63;91.73
9189;BME280;34313;50.780;6.084;2023-02-16T05:14:53;100289.59;;;5.71;91.22
9189;BME280;34313;50.780;6.084;2023-02-16T05:17:23;100288.31;;;5.85;90.93
9189;BME280;34313;50.780;6.084;2023-02-16T05:19:51;100282.72;;;6.01;90.29
9189;BME280;34313;50.780;6.084;2023-02-16T05:22:17;100283.44;;;6.06;90.12
9189;BME280;34313;50.780;6.084;2023-02-16T05:24:43;100284.06;;;6.16;88.96
9189;BME280;34313;50.780;6.084;2023-02-16T05:27:18;100283.16;;;6.17;88.94
9189;BME280;34313;50.780;6.084;2023-02-16T05:29:44;100270.91;;;6.19;88.29
9189;BME280;34313;50.780;6.084;2023-02-16T05:32:09;100271.88;;;6.15;88.81
9189;BME280;34313;50.780;6.084;2023-02-16T05:34:35;100273.59;;;6.16;88.56
9189;BME280;34313;50.780;6.084;2023-02-16T05:37:00;100272.78;;;6.14;88.21
9189;BME280;34313;50.780;6.084;2023-02-16T05:39:26;100270.25;;;6.11;88.39
9189;BME280;34313;50.780;6.084;2023-02-16T05:41:52;100273.59;;;6.16;87.90
9189;BME280;34313;50.780;6.084;2023-02-16T05:44:17;100268.19;;;6.22;87.38
9189;BME280;34313;50.780;6.084;2023-02-16T05:46:43;100261.06;;;6.27;87.29
9189;BME280;34313;50.780;6.084;2023-02-16T05:49:09;100268.84;;;6.30;86.99
9189;BME280;34313;50.780;6.084;2023-02-16T05:51:35;100265.00;;;6.42;86.50
9189;BME280;34313;50.780;6.084;2023-02-16T05:54:01;100264.81;;;6.48;85.76
9189;BME280;34313;50.780;6.084;2023-02-16T05:56:27;100242.75;;;6.57;85.04
9189;BME280;34313;50.780;6.084;2023-02-16T05:58:53;100258.00;;;6.72;84.23
9189;BME280;34313;50.780;6.084;2023-02-16T06:01:19;100268.34;;;6.77;83.83
9189;BME280;34313;50.780;6.084;2023-02-16T06:03:44;100262.69;;;6.91;82.91
9189;BME280;34313;50.780;6.084;2023-02-16T06:06:10;100261.72;;;6.93;82.34
9189;BME280;34313;50.780;6.084;2023-02-16T06:08:36;100272.03;;;6.99;82.42
9189;BME280;34313;50.780;6.084;2023-02-16T06:11:03;100272.78;;;7.03;82.07
9189;BME280;34313;50.780;6.084;2023-02-16T06:13:31;100267.28;;;7.11;81.63
9189;BME280;34313;50.780;6.084;2023-02-16T06:15:57;100253.34;;;7.10;80.98
9189;BME280;34313;50.780;6.084;2023-02-16T06:18:24;100271.97;;;7.29;80.11
9189;BME280;34313;50.780;6.084;2023-02-16T06:20:50;100266.72;;;7.29;79.75
9189;BME280;34313;50.780;6.084;2023-02-16T06:23:15;100263.84;;;7.37;79.38
9189;BME280;34313;50.780;6.084;2023-02-16T06:25:42;100267.13;;;7.44;78.59
9189;BME280;34313;50.780;6.084;2023-02-16T06:28:08;100272.75;;;7.58;77.47
9189;BME280;34313;50.780;6.084;2023-02-16T06:30:33;100272.91;;;7.53;77.67
9189;BME280;34313;50.780;6.084;2023-02-16T06:33:00;100266.47;;;7.62;77.38
9189;BME280;34313;50.780;6.084;2023-02-16T06:35:25;100272.63;;;7.63;76.98
9189;BME280;34313;50.780;6.084;2023-02-16T06:37:51;100267.94;;;7.71;76.39
9189;BME280;34313;50.780;6.084;2023-02-16T06:40:16;100263.50;;;7.73;76.59
9189;BME280;34313;50.780;6.084;2023-02-16T06:42:42;100266.94;;;7.75;76.37
9189;BME280;34313;50.780;6.084;2023-02-16T06:45:08;100257.25;;;7.77;76.04
9189;BME280;34313;50.780;6.084;2023-02-16T06:47:35;100263.25;;;7.81;76.36
9189;BME280;34313;50.780;6.084;2023-02-16T06:50:01;100259.34;;;7.92;75.34
9189;BME280;34313;50.780;6.084;2023-02-16T06:52:27;100266.97;;;7.99;74.95
9189;BME280;34313;50.780;6.084;2023-02-16T06:54:52;100265.34;;;7.96;75.05
9189;BME280;34313;50.780;6.084;2023-02-16T06:57:18;100258.91;;;8.05;74.48
9189;BME280;34313;50.780;6.084;2023-02-16T06:59:43;100259.53;;;8.11;74.18
9189;BME280;34313;50.780;6.084;2023-02-16T07:02:09;100250.75;;;8.36;72.48
9189;BME280;34313;50.780;6.084;2023-02-16T07:04:35;100257.63;;;8.64;71.52
9189;BME280;34313;50.780;6.084;2023-02-16T07:07:01;100257.22;;;8.75;70.09
9189;BME280;34313;50.780;6.084;2023-02-16T07:09:27;100254.88;;;8.67;69.35
9189;BME280;34313;50.780;6.084;2023-02-16T07:11:52;100244.69;;;8.59;69.19
9189;BME280;34313;50.780;6.084;2023-02-16T07:14:19;100244.69;;;8.59;69.46
9189;BME280;34313;50.780;6.084;2023-02-16T07:16:44;100261.50;;;8.54;69.27
9189;BME280;34313;50.780;6.084;2023-02-16T07:19:09;100243.13;;;8.54;69.25
9189;BME280;34313;50.780;6.084;2023-02-16T07:21:35;100249.25;;;8.54;68.80
9189;BME280;34313;50.780;6.084;2023-02-16T07:24:00;100246.72;;;8.51;69.21
9189;BME280;34313;50.780;6.084;2023-02-16T07:26:26;100262.25;;;8.57;69.50
9189;BME280;34313;50.780;6.084;2023-02-16T07:28:51;100248.50;;;8.50;69.29
9189;BME280;34313;50.780;6.084;2023-02-16T07:31:17;100257.00;;;8.57;69.44
9189;BME280;34313;50.780;6.084;2023-02-16T07:33:43;100246.25;;;8.63;69.15
9189;BME280;34313;50.780;6.084;2023-02-16T07:36:10;100244.75;;;8.80;68.37
9189;BME280;34313;50.780;6.084;2023-02-16T07:38:36;100243.84;;;8.81;68.61
9189;BME280;34313;50.780;6.084;2023-02-16T07:41:02;100252.34;;;8.87;68.97
9189;BME280;34313;50.780;6.084;2023-02-16T07:43:27;100261.50;;;8.99;68.51
9189;BME280;34313;50.780;6.084;2023-02-16T07:45:53;100260.38;;;9.06;68.43
9189;BME280;34313;50.780;6.084;2023-02-16T07:48:18;100260.66;;;9.21;68.22
9189;BME280;34313;50.780;6.084;2023-02-16T07:50:44;100259.66;;;9.45;67.45
9189;BME280;34313;50.780;6.084;2023-02-16T07:53:09;100264.41;;;9.58;67.11
9189;BME280;34313;50.780;6.084;2023-02-16T07:55:39;100272.91;;;9.85;66.70
9189;BME280;34313;50.780;6.084;2023-02-16T07:58:05;100262.78;;;9.96;66.14
9189;BME280;34313;50.780;6.084;2023-02-16T08:00:30;100264.75;;;10.12;65.69
9189;BME280;34313;50.780;6.084;2023-02-16T08:02:56;100270.19;;;10.28;65.35
9189;BME280;34313;50.780;6.084;2023-02-16T08:05:21;100275.38;;;10.29;65.41
9189;BME280;34313;50.780;6.084;2023-02-16T08:07:47;100276.59;;;10.22;65.87
9189;BME280;34313;50.780;6.084;2023-02-16T08:10:13;100275.00;;;10.18;66.10
9189;BME280;34313;50.780;6.084;2023-02-16T08:12:38;100263.72;;;10.14;66.42
9189;BME280;34313;50.780;6.084;2023-02-16T08:15:07;100262.75;;;10.17;66.41
9189;BME280;34313;50.780;6.084;2023-02-16T08:17:34;100261.41;;;10.27;66.13
9189;BME280;34313;50.780;6.084;2023-02-16T08:19:59;100274.50;;;10.49;65.70
9189;BME280;34313;50.780;6.084;2023-02-16T08:22:25;100260.13;;;10.56;65.08
9189;BME280;34313;50.780;6.084;2023-02-16T08:24:52;100270.59;;;10.77;64.47
9189;BME280;34313;50.780;6.084;2023-02-16T08:27:18;100266.16;;;10.77;64.74
9189;BME280;34313;50.780;6.084;2023-02-16T08:29:44;100267.59;;;10.85;64.65
9189;BME280;34313;50.780;6.084;2023-02-16T08:32:13;100262.69;;;10.77;64.92
9189;BME280;34313;50.780;6.084;2023-02-16T08:34:39;100278.91;;;11.06;64.63
9189;BME280;34313;50.780;6.084;2023-02-16T08:37:05;100267.22;;;11.29;64.10
9189;BME280;34313;50.780;6.084;2023-02-16T08:39:31;100269.84;;;11.83;62.08
9189;BME280;34313;50.780;6.084;2023-02-16T08:41:59;100272.19;;;12.06;61.60
9189;BME280;34313;50.780;6.084;2023-02-16T08:44:26;100262.31;;;12.43;61.38
9189;BME280;34313;50.780;6.084;2023-02-16T08:46:55;100267.19;;;12.99;60.02
9189;BME280;34313;50.780;6.084;2023-02-16T08:49:21;100259.56;;;13.40;58.62
9189;BME280;34313;50.780;6.084;2023-02-16T08:51:50;100252.16;;;13.61;57.35
9189;BME280;34313;50.780;6.084;2023-02-16T08:54:19;100262.00;;;13.59;57.13
9189;BME280;34313;50.780;6.084;2023-02-16T08:56:45;100258.72;;;13.24;57.88
9189;BME280;34313;50.780;6.084;2023-02-16T08:59:16;100261.81;;;13.00;58.73
9189;BME280;34313;50.780;6.084;2023-02-16T09:01:42;100266.03;;;12.89;59.35
9189;BME280;34313;50.780;6.084;2023-02-16T09:04:09;100264.88;;;12.61;60.20
9189;BME280;34313;50.780;6.084;2023-02-16T09:06:39;100272.63;;;12.48;60.41
9189;BME280;34313;50.780;6.084;2023-02-16T09:09:06;100265.25;;;12.37;62.90
9189;BME280;34313;50.780;6.084;2023-02-16T09:11:33;100259.44;;;12.30;61.91
9189;BME280;34313;50.780;6.084;2023-02-16T09:13:59;100271.88;;;12.28;61.42
9189;BME280;34313;50.780;6.084;2023-02-16T09:16:28;100284.84;;;12.17;62.11
9189;BME280;34313;50.780;6.084;2023-02-16T09:19:01;100249.41;;;11.86;62.59
9189;BME280;34313;50.780;6.084;2023-02-16T09:21:28;100281.66;;;11.93;62.90
9189;BME280;34313;50.780;6.084;2023-02-16T09:24:01;100281.16;;;11.85;63.41
9189;BME280;34313;50.780;6.084;2023-02-16T09:26:31;100257.03;;;11.58;63.78
9189;BME280;34313;50.780;6.084;2023-02-16T09:28:58;100298.72;;;11.86;64.07
9189;BME280;34313;50.780;6.084;2023-02-16T09:31:27;100290.81;;;11.86;63.93
9189;BME280;34313;50.780;6.084;2023-02-16T09:34:03;100300.16;;;11.93;64.05
9189;BME280;34313;50.780;6.084;2023-02-16T09:36:30;100298.13;;;11.98;64.17
9189;BME280;34313;50.780;6.084;2023-02-16T09:38:56;100292.78;;;12.00;64.11
9189;BME280;34313;50.780;6.084;2023-02-16T09:46:39;100310.06;;;11.70;65.24
9189;BME280;34313;50.780;6.084;2023-02-16T09:49:18;100303.94;;;11.70;65.46
9189;BME280;34313;50.780;6.084;2023-02-16T09:51:49;100317.84;;;11.73;65.68
9189;BME280;34313;50.780;6.084;2023-02-16T09:57:17;100325.38;;;11.81;66.01
9189;BME280;34313;50.780;6.084;2023-02-16T09:59:50;100326.69;;;11.90;65.73
9189;BME280;34313;50.780;6.084;2023-02-16T10:07:48;100337.47;;;12.55;63.60
9189;BME280;34313;50.780;6.084;2023-02-16T10:10:23;100339.22;;;12.88;62.95
9189;BME280;34313;50.780;6.084;2023-02-16T10:12:55;100336.59;;;13.04;62.37
9189;BME280;34313;50.780;6.084;2023-02-16T10:15:25;100332.41;;;13.16;62.08
9189;BME280;34313;50.780;6.084;2023-02-16T10:18:03;100337.78;;;13.14;61.88
9189;BME280;34313;50.780;6.084;2023-02-16T10:20:35;100346.94;;;13.24;61.83
9189;BME280;34313;50.780;6.084;2023-02-16T10:23:30;100341.03;;;13.03;62.68
9189;BME280;34313;50.780;6.084;2023-02-16T10:26:15;100338.69;;;12.81;63.58
9189;BME280;34313;50.780;6.084;2023-02-16T10:42:16;100340.56;;;11.95;67.22
9189;BME280;34313;50.780;6.084;2023-02-16T10:47:36;100331.56;;;12.17;66.37
9189;BME280;34313;50.780;6.084;2023-02-16T10:50:04;100335.75;;;12.21;66.29
9189;BME280;34313;50.780;6.084;2023-02-16T10:52:36;100324.81;;;12.27;65.78
9189;BME280;34313;50.780;6.084;2023-02-16T10:55:02;100327.84;;;12.37;65.37
9189;BME280;34313;50.780;6.084;2023-02-16T10:57:29;100335.16;;;12.49;65.27
9189;BME280;34313;50.780;6.084;2023-02-16T10:59:58;100337.25;;;12.42;65.18
9189;BME280;34313;50.780;6.084;2023-02-16T11:02:27;100314.38;;;12.59;64.72
9189;BME280;34313;50.780;6.084;2023-02-16T11:04:57;100311.66;;;12.76;63.92
9189;BME280;34313;50.780;6.084;2023-02-16T11:07:26;100319.41;;;12.95;63.39
9189;BME280;34313;50.780;6.084;2023-02-16T11:09:57;100317.81;;;12.93;63.42
9189;BME280;34313;50.780;6.084;2023-02-16T11:12:31;100312.00;;;12.86;63.34
9189;BME280;34313;50.780;6.084;2023-02-16T11:18:04;100308.94;;;13.10;63.14
9189;BME280;34313;50.780;6.084;2023-02-16T11:26:04;100317.47;;;12.49;66.05
9189;BME280;34313;50.780;6.084;2023-02-16T11:31:23;100310.44;;;12.50;67.85
9189;BME280;34313;50.780;6.084;2023-02-16T11:36:36;100303.47;;;12.32;68.62
9189;BME280;34313;50.780;6.084;2023-02-16T11:42:04;100306.53;;;12.06;69.46
9189;BME280;34313;50.780;6.084;2023-02-16T11:44:33;100307.38;;;12.07;69.55
9189;BME280;34313;50.780;6.084;2023-02-16T11:47:03;100299.84;;;12.17;69.24
9189;BME280;34313;50.780;6.084;2023-02-16T11:49:39;100308.00;;;12.12;69.52
9189;BME280;34313;50.780;6.084;2023-02-16T11:54:56;100290.19;;;12.16;70.04
9189;BME280;34313;50.780;6.084;2023-02-16T11:57:30;100302.16;;;12.05;71.18
9189;BME280;34313;50.780;6.084;2023-02-16T11:59:57;100286.25;;;12.07;71.64
9189;BME280;34313;50.780;6.084;2023-02-16T12:08:15;100273.84;;;12.74;70.58
9189;BME280;34313;50.780;6.084;2023-02-16T12:13:37;100254.47;;;12.74;71.25
9189;BME280;34313;50.780;6.084;2023-02-16T12:21:32;100254.91;;;13.14;70.09
9189;BME280;34313;50.780;6.084;2023-02-16T12:26:44;100249.56;;;13.30;69.36
9189;BME280;34313;50.780;6.084;2023-02-16T12:43:29;100247.97;;;13.27;69.39
9189;BME280;34313;50.780;6.084;2023-02-16T12:45:54;100236.28;;;13.15;69.81
9189;BME280;34313;50.780;6.084;2023-02-16T12:48:32;100235.91;;;13.37;69.42
9189;BME280;34313;50.780;6.084;2023-02-16T12:51:02;100241.72;;;13.44;69.34
9189;BME280;34313;50.780;6.084;2023-02-16T12:54:15;100231.66;;;13.65;68.49
9189;BME280;34313;50.780;6.084;2023-02-16T12:56:25;100224.38;;;13.69;67.81
9189;BME280;34313;50.780;6.084;2023-02-16T12:58:59;100228.19;;;13.79;67.34
9189;BME280;34313;50.780;6.084;2023-02-16T13:01:29;100226.28;;;13.81;67.20
9189;BME280;34313;50.780;6.084;2023-02-16T13:04:16;100212.28;;;13.79;67.09
9189;BME280;34313;50.780;6.084;2023-02-16T13:12:03;100206.31;;;14.04;66.49
9189;BME280;34313;50.780;6.084;2023-02-16T13:14:34;100202.06;;;14.16;65.40
9189;BME280;34313;50.780;6.084;2023-02-16T13:17:14;100204.81;;;14.14;64.12
9189;BME280;34313;50.780;6.084;2023-02-16T13:19:43;100202.75;;;14.05;64.78
9189;BME280;34313;50.780;6.084;2023-02-16T13:25:20;100175.09;;;13.66;64.29
9189;BME280;34313;50.780;6.084;2023-02-16T13:33:21;100163.53;;;13.67;64.13
9189;BME280;34313;50.780;6.084;2023-02-16T13:39:28;100166.31;;;13.80;62.95
9189;BME280;34313;50.780;6.084;2023-02-16T13:45:19;100147.19;;;13.89;62.68
9189;BME280;34313;50.780;6.084;2023-02-16T13:47:45;100133.00;;;13.90;62.63
9189;BME280;34313;50.780;6.084;2023-02-16T13:50:31;100137.66;;;13.87;62.16
9189;BME280;34313;50.780;6.084;2023-02-16T13:53:10;100133.19;;;13.73;60.99
9189;BME280;34313;50.780;6.084;2023-02-16T13:55:40;100125.03;;;13.61;60.59
9189;BME280;34313;50.780;6.084;2023-02-16T14:05:42;100135.28;;;13.07;60.01
9189;BME280;34313;50.780;6.084;2023-02-16T14:08:26;100138.81;;;12.92;60.83
9189;BME280;34313;50.780;6.084;2023-02-16T14:13:44;100130.69;;;12.80;60.74
9189;BME280;34313;50.780;6.084;2023-02-16T14:16:26;100135.41;;;12.90;60.85
9189;BME280;34313;50.780;6.084;2023-02-16T14:18:57;100126.84;;;13.00;60.21
9189;BME280;34313;50.780;6.084;2023-02-16T14:23:57;100114.38;;;13.02;58.93
9189;BME280;34313;50.780;6.084;2023-02-16T14:26:24;100083.84;;;12.97;58.60
9189;BME280;34313;50.780;6.084;2023-02-16T14:29:15;100124.81;;;13.20;58.26
9189;BME280;34313;50.780;6.084;2023-02-16T14:31:50;100084.72;;;12.97;58.77
9189;BME280;34313;50.780;6.084;2023-02-16T14:34:27;100113.81;;;13.28;58.42
9189;BME280;34313;50.780;6.084;2023-02-16T14:37:38;100084.94;;;13.23;58.46
9189;BME280;34313;50.780;6.084;2023-02-16T14:42:49;100107.47;;;13.30;58.58
9189;BME280;34313;50.780;6.084;2023-02-16T14:45:35;100100.22;;;13.34;58.68
9189;BME280;34313;50.780;6.084;2023-02-16T14:48:22;100108.47;;;13.43;58.60
9189;BME280;34313;50.780;6.084;2023-02-16T14:59:29;100093.56;;;13.57;58.64
9189;BME280;34313;50.780;6.084;2023-02-16T15:01:56;100083.59;;;13.46;59.09
9189;BME280;34313;50.780;6.084;2023-02-16T15:04:30;100089.66;;;13.48;59.30
9189;BME280;34313;50.780;6.084;2023-02-16T15:06:58;100079.44;;;13.42;59.98
9189;BME280;34313;50.780;6.084;2023-02-16T15:09:29;100076.84;;;13.26;59.94
9189;BME280;34313;50.780;6.084;2023-02-16T15:11:57;100089.41;;;13.22;60.53
9189;BME280;34313;50.780;6.084;2023-02-16T15:17:43;100090.31;;;13.07;61.43
9189;BME280;34313;50.780;6.084;2023-02-16T15:20:26;100094.59;;;13.10;61.90
9189;BME280;34313;50.780;6.084;2023-02-16T15:23:14;100097.09;;;12.97;62.52
9189;BME280;34313;50.780;6.084;2023-02-16T15:25:40;100086.03;;;12.74;63.17
9189;BME280;34313;50.780;6.084;2023-02-16T15:30:44;100091.31;;;12.44;64.64
9189;BME280;34313;50.780;6.084;2023-02-16T15:33:34;100086.19;;;12.41;65.31
9189;BME280;34313;50.780;6.084;2023-02-16T15:36:05;100084.75;;;12.35;65.45
9189;BME280;34313;50.780;6.084;2023-02-16T15:38:35;100083.81;;;12.36;65.68
9189;BME280;34313;50.780;6.084;2023-02-16T15:41:14;100086.03;;;12.28;65.66
9189;BME280;34313;50.780;6.084;2023-02-16T15:43:47;100087.84;;;12.12;66.01
9189;BME280;34313;50.780;6.084;2023-02-16T15:46:23;100086.28;;;12.07;66.77
9189;BME280;34313;50.780;6.084;2023-02-16T15:48:48;100089.19;;;12.03;66.82
9189;BME280;34313;50.780;6.084;2023-02-16T15:51:30;100085.44;;;11.91;67.52
9189;BME280;34313;50.780;6.084;2023-02-16T15:54:03;100086.31;;;11.90;67.39
9189;BME280;34313;50.780;6.084;2023-02-16T15:56:42;100095.50;;;11.83;68.03
9189;BME280;34313;50.780;6.084;2023-02-16T16:04:31;100095.44;;;11.84;68.47
9189;BME280;34313;50.780;6.084;2023-02-16T16:07:07;100099.53;;;11.90;68.80
9189;BME280;34313;50.780;6.084;2023-02-16T16:09:37;100101.53;;;12.02;68.20
9189;BME280;34313;50.780;6.084;2023-02-16T16:12:06;100100.00;;;11.98;68.60
9189;BME280;34313;50.780;6.084;2023-02-16T16:14:55;100083.63;;;11.91;68.96
9189;BME280;34313;50.780;6.084;2023-02-16T16:17:26;100074.44;;;11.99;69.01
9189;BME280;34313;50.780;6.084;2023-02-16T16:19:53;100064.28;;;11.91;69.46